Time,TemperatureF,DewpointF,PressureIn,WindDirection,WindDirectionDegrees,WindSpeedMPH,WindSpeedGustMPH,Humidity,HourlyPrecipIn,Conditions,Clouds,dailyrainin,SolarRadiationWatts/m^2,SoftwareType,DateUTC
2013-07-03 00:01:00,59.0,53.0,-100.00,ENE,64,10.0,20.0,81,0.23,,,0.39,0.000000,,2013-07-03 04:01:00,
2013-07-03 00:22:00,59.0,53.0,-100.00,ENE,64,10.0,20.0,81,0.23,,,0.39,0.000000,,2013-07-03 04:22:00,
2013-07-03 00:34:00,59.0,53.0,-100.00,ENE,64,10.0,20.0,81,0.23,,,0.39,0.000000,,2013-07-03 04:34:00,
2013-07-03 00:43:00,59.0,53.0,-100.00,ENE,64,10.0,20.0,81,0.23,,,0.39,0.000000,,2013-07-03 04:43:00,
2013-07-03 00:52:00,59.0,53.0,-100.00,ENE,64,10.0,20.0,81,0.23,,,0.39,0.000000,,2013-07-03 04:52:00,
2013-07-03 01:01:00,58.0,56.0,-100.00,SSE,154,8.0,17.0,92,0.17,,,0.56,0.000000,,2013-07-03 05:01:00,
2013-07-03 01:23:00,58.0,56.0,-100.00,SSE,154,8.0,17.0,92,0.17,,,0.56,0.000000,,2013-07-03 05:23:00,
2013-07-03 01:40:00,58.0,56.0,-100.00,SSE,154,8.0,17.0,92,0.17,,,0.56,0.000000,,2013-07-03 05:40:00,
2013-07-03 01:48:00,58.0,56.0,-100.00,SSE,154,8.0,17.0,92,0.17,,,0.56,0.000000,,2013-07-03 05:48:00,
2013-07-03 02:00:00,58.0,56.0,-100.00,SSE,154,8.0,17.0,92,0.17,,,0.56,0.000000,,2013-07-03 06:00:00,
2013-07-03 02:01:00,61.0,52.0,-100.00,NNE,29,8.0,20.0,73,0.01,,,0.57,0.000000,,2013-07-03 06:01:00,
2013-07-03 02:26:00,61.0,52.0,-100.00,NNE,29,8.0,20.0,73,0.01,,,0.57,0.000000,,2013-07-03 06:26:00,
2013-07-03 02:50:00,61.0,52.0,-100.00,NNE,29,8.0,20.0,73,0.01,,,0.57,0.000000,,2013-07-03 06:50:00,
2013-07-03 02:58:00,61.0,52.0,-100.00,NNE,29,8.0,20.0,73,0.01,,,0.57,0.000000,,2013-07-03 06:58:00,
2013-07-03 03:01:00,59.0,52.0,-100.00,NNE,17,3.0,15.0,77,0.00,,,0.57,0.000000,,2013-07-03 07:01:00,
2013-07-03 03:28:00,59.0,52.0,-100.00,NNE,17,3.0,15.0,77,0.00,,,0.57,0.000000,,2013-07-03 07:28:00,
2013-07-03 03:39:00,59.0,52.0,-100.00,NNE,17,3.0,15.0,77,0.00,,,0.57,0.000000,,2013-07-03 07:39:00,
2013-07-03 03:48:00,59.0,52.0,-100.00,NNE,17,3.0,15.0,77,0.00,,,0.57,0.000000,,2013-07-03 07:48:00,
2013-07-03 04:01:00,62.0,52.0,-100.00,NE,37,4.0,11.0,70,0.00,,,0.57,0.000000,,2013-07-03 08:01:00,
2013-07-03 04:25:00,62.0,52.0,-100.00,NE,37,4.0,11.0,70,0.00,,,0.57,0.000000,,2013-07-03 08:25:00,
2013-07-03 04:38:00,62.0,52.0,-100.00,NE,37,4.0,11.0,70,0.00,,,0.57,0.000000,,2013-07-03 08:38:00,
2013-07-03 04:46:00,62.0,52.0,-100.00,NE,37,4.0,11.0,70,0.00,,,0.57,0.000000,,2013-07-03 08:46:00,
2013-07-03 04:56:00,62.0,52.0,-100.00,NE,37,4.0,11.0,70,0.00,,,0.57,0.000000,,2013-07-03 08:56:00,
2013-07-03 05:01:00,60.0,54.0,-100.00,North,352,3.0,7.0,80,0.00,,,0.57,0.000000,,2013-07-03 09:01:00,
2013-07-03 05:26:00,60.0,54.0,-100.00,North,352,3.0,7.0,80,0.00,,,0.57,0.000000,,2013-07-03 09:26:00,
2013-07-03 05:39:00,60.0,54.0,-100.00,North,352,3.0,7.0,80,0.00,,,0.57,0.000000,,2013-07-03 09:39:00,
2013-07-03 05:47:00,60.0,54.0,-100.00,North,352,3.0,7.0,80,0.00,,,0.57,0.000000,,2013-07-03 09:47:00,
2013-07-03 05:57:00,60.0,54.0,-100.00,North,352,3.0,7.0,80,0.00,,,0.57,0.000000,,2013-07-03 09:57:00,
2013-07-03 06:01:00,60.0,55.0,-100.00,ESE,121,2.0,5.0,85,0.00,,,0.57,0.000000,,2013-07-03 10:01:00,
2013-07-03 06:37:00,60.0,55.0,-100.00,ESE,121,2.0,5.0,85,0.00,,,0.57,0.000000,,2013-07-03 10:37:00,
2013-07-03 06:46:00,60.0,55.0,-100.00,ESE,121,2.0,5.0,85,0.00,,,0.57,0.000000,,2013-07-03 10:46:00,
2013-07-03 06:56:00,60.0,55.0,-100.00,ESE,121,2.0,5.0,85,0.00,,,0.57,0.000000,,2013-07-03 10:56:00,
2013-07-03 07:38:00,60.0,53.0,-100.00,NW,321,3.0,9.0,77,0.00,,,0.57,0.000000,,2013-07-03 11:38:00,
2013-07-03 07:45:00,60.0,53.0,-100.00,NW,321,3.0,9.0,77,0.00,,,0.57,0.000000,,2013-07-03 11:45:00,
2013-07-03 08:26:00,60.0,52.0,-100.00,NE,49,11.0,19.0,76,0.00,,,0.57,0.000000,,2013-07-03 12:26:00,
2013-07-03 08:46:00,60.0,52.0,-100.00,NE,49,11.0,19.0,76,0.00,,,0.57,0.000000,,2013-07-03 12:46:00,
2013-07-03 08:58:00,60.0,52.0,-100.00,NE,49,11.0,19.0,76,0.00,,,0.57,0.000000,,2013-07-03 12:58:00,
2013-07-03 09:01:00,59.0,51.0,-100.00,SSW,205,6.0,17.0,76,0.00,,,-99.99,16.000000,,2013-07-03 13:01:00,
2013-07-03 09:37:00,59.0,51.0,-100.00,SSW,205,6.0,17.0,76,0.00,,,-99.99,16.000000,,2013-07-03 13:37:00,
2013-07-03 09:48:00,59.0,51.0,-100.00,SSW,205,6.0,17.0,76,0.00,,,-99.99,16.000000,,2013-07-03 13:48:00,
2013-07-03 09:55:00,59.0,51.0,-100.00,SSW,205,6.0,17.0,76,0.00,,,-99.99,16.000000,,2013-07-03 13:55:00,
2013-07-03 10:01:00,60.0,55.0,-100.00,North,4,1.0,6.0,83,0.00,,,0.57,71.000000,,2013-07-03 14:01:00,
2013-07-03 10:26:00,60.0,55.0,-100.00,North,4,1.0,6.0,83,0.00,,,0.57,71.000000,,2013-07-03 14:26:00,
2013-07-03 10:38:00,60.0,55.0,-100.00,North,4,1.0,6.0,83,0.00,,,0.57,71.000000,,2013-07-03 14:38:00,
2013-07-03 10:47:00,60.0,55.0,-100.00,North,4,1.0,6.0,83,0.00,,,0.57,71.000000,,2013-07-03 14:47:00,
2013-07-03 10:55:00,60.0,55.0,-100.00,North,4,1.0,6.0,83,0.00,,,0.57,71.000000,,2013-07-03 14:55:00,
2013-07-03 11:01:00,67.0,56.0,-100.00,WSW,248,3.0,7.0,69,0.00,,,0.57,212.000000,,2013-07-03 15:01:00,
2013-07-03 11:27:00,67.0,56.0,-100.00,WSW,248,3.0,7.0,69,0.00,,,0.57,212.000000,,2013-07-03 15:27:00,
2013-07-03 11:38:00,67.0,56.0,-100.00,WSW,248,3.0,7.0,69,0.00,,,0.57,212.000000,,2013-07-03 15:38:00,
2013-07-03 11:48:00,67.0,56.0,-100.00,WSW,248,3.0,7.0,69,0.00,,,0.57,212.000000,,2013-07-03 15:48:00,
2013-07-03 11:57:00,67.0,56.0,-100.00,WSW,248,3.0,7.0,69,0.00,,,0.57,212.000000,,2013-07-03 15:57:00,
2013-07-03 12:01:00,72.0,54.0,-100.00,South,185,4.0,9.0,54,0.00,,,-99.99,468.000000,,2013-07-03 16:01:00,
2013-07-03 12:40:00,72.0,54.0,-100.00,South,185,4.0,9.0,54,0.00,,,-99.99,468.000000,,2013-07-03 16:40:00,
2013-07-03 12:47:00,72.0,54.0,-100.00,South,185,4.0,9.0,54,0.00,,,-99.99,468.000000,,2013-07-03 16:47:00,
2013-07-03 13:01:00,73.0,50.0,-100.00,NNW,332,7.0,11.0,44,0.00,,,0.57,830.000000,,2013-07-03 17:01:00,
2013-07-03 13:27:00,73.0,50.0,-100.00,NNW,332,7.0,11.0,44,0.00,,,0.57,830.000000,,2013-07-03 17:27:00,
2013-07-03 13:42:00,73.0,50.0,-100.00,NNW,332,7.0,11.0,44,0.00,,,0.57,830.000000,,2013-07-03 17:42:00,
2013-07-03 13:49:00,73.0,50.0,-100.00,NNW,332,7.0,11.0,44,0.00,,,0.57,830.000000,,2013-07-03 17:49:00,
2013-07-03 14:01:00,75.0,56.0,-100.00,ESE,108,4.0,11.0,52,0.00,,,0.57,862.000000,,2013-07-03 18:01:00,
2013-07-03 14:39:00,75.0,56.0,-100.00,ESE,108,4.0,11.0,52,0.00,,,0.57,862.000000,,2013-07-03 18:39:00,
2013-07-03 14:46:00,75.0,56.0,-100.00,ESE,108,4.0,11.0,52,0.00,,,0.57,862.000000,,2013-07-03 18:46:00,
2013-07-03 14:58:00,75.0,56.0,-100.00,ESE,108,4.0,11.0,52,0.00,,,0.57,862.000000,,2013-07-03 18:58:00,
2013-07-03 15:01:00,77.0,51.0,-100.00,West,273,7.0,13.0,41,0.00,,,0.57,838.000000,,2013-07-03 19:01:00,
2013-07-03 15:30:00,77.0,51.0,-100.00,West,273,7.0,13.0,41,0.00,,,0.57,838.000000,,2013-07-03 19:30:00,
2013-07-03 15:38:00,77.0,51.0,-100.00,West,273,7.0,13.0,41,0.00,,,0.57,838.000000,,2013-07-03 19:38:00,
2013-07-03 15:49:00,77.0,51.0,-100.00,West,273,7.0,13.0,41,0.00,,,0.57,838.000000,,2013-07-03 19:49:00,
2013-07-03 15:57:00,77.0,51.0,-100.00,West,273,7.0,13.0,41,0.00,,,0.57,838.000000,,2013-07-03 19:57:00,
2013-07-03 16:01:00,79.0,51.0,-100.00,WSW,248,7.0,14.0,38,0.00,,,0.57,996.000000,,2013-07-03 20:01:00,
2013-07-03 16:26:00,79.0,51.0,-100.00,WSW,248,7.0,14.0,38,0.00,,,0.57,996.000000,,2013-07-03 20:26:00,
2013-07-03 16:46:00,79.0,51.0,-100.00,WSW,248,7.0,14.0,38,0.00,,,0.57,996.000000,,2013-07-03 20:46:00,
2013-07-03 16:55:00,79.0,51.0,-100.00,WSW,248,7.0,14.0,38,0.00,,,0.57,996.000000,,2013-07-03 20:55:00,
2013-07-03 17:01:00,80.0,50.0,-100.00,SW,226,7.0,13.0,35,0.00,,,0.57,976.000000,,2013-07-03 21:01:00,
2013-07-03 17:27:00,80.0,50.0,-100.00,SW,226,7.0,13.0,35,0.00,,,0.57,976.000000,,2013-07-03 21:27:00,
2013-07-03 17:37:00,80.0,50.0,-100.00,SW,226,7.0,13.0,35,0.00,,,0.57,976.000000,,2013-07-03 21:37:00,
2013-07-03 17:45:00,80.0,50.0,-100.00,SW,226,7.0,13.0,35,0.00,,,0.57,976.000000,,2013-07-03 21:45:00,
2013-07-03 17:55:00,80.0,50.0,-100.00,SW,226,7.0,13.0,35,0.00,,,0.57,976.000000,,2013-07-03 21:55:00,
2013-07-03 18:01:00,82.0,47.0,-100.00,SSW,210,8.0,14.0,30,0.00,,,0.57,872.000000,,2013-07-03 22:01:00,
2013-07-03 18:27:00,82.0,47.0,-100.00,SSW,210,8.0,14.0,30,0.00,,,0.57,872.000000,,2013-07-03 22:27:00,
2013-07-03 18:38:00,82.0,47.0,-100.00,SSW,210,8.0,14.0,30,0.00,,,0.57,872.000000,,2013-07-03 22:38:00,
2013-07-03 18:46:00,82.0,47.0,-100.00,SSW,210,8.0,14.0,30,0.00,,,0.57,872.000000,,2013-07-03 22:46:00,
2013-07-03 18:56:00,82.0,47.0,-100.00,SSW,210,8.0,14.0,30,0.00,,,0.57,872.000000,,2013-07-03 22:56:00,
2013-07-03 19:01:00,81.0,46.0,-100.00,SSE,164,4.0,13.0,29,0.00,,,0.57,705.000000,,2013-07-03 23:01:00,
2013-07-03 19:26:00,81.0,46.0,-100.00,SSE,164,4.0,13.0,29,0.00,,,0.57,705.000000,,2013-07-03 23:26:00,
2013-07-03 19:40:00,81.0,46.0,-100.00,SSE,164,4.0,13.0,29,0.00,,,0.57,705.000000,,2013-07-03 23:40:00,
2013-07-03 19:45:00,81.0,46.0,-100.00,SSE,164,4.0,13.0,29,0.00,,,0.57,705.000000,,2013-07-03 23:45:00,
2013-07-03 19:56:00,81.0,46.0,-100.00,SSE,164,4.0,13.0,29,0.00,,,0.57,705.000000,,2013-07-03 23:56:00,
2013-07-03 20:01:00,79.0,50.0,-100.00,SE,131,8.0,15.0,36,0.00,,,0.57,333.000000,,2013-07-04 00:01:00,
2013-07-03 20:37:00,79.0,50.0,-100.00,SE,131,8.0,15.0,36,0.00,,,0.57,333.000000,,2013-07-04 00:37:00,
2013-07-03 20:50:00,79.0,50.0,-100.00,SE,131,8.0,15.0,36,0.00,,,0.57,333.000000,,2013-07-04 00:50:00,
2013-07-03 20:57:00,79.0,50.0,-100.00,SE,131,8.0,15.0,36,0.00,,,0.57,333.000000,,2013-07-04 00:57:00,
2013-07-03 21:01:00,77.0,47.0,-100.00,SE,128,9.0,14.0,35,0.00,,,0.57,163.000000,,2013-07-04 01:01:00,
2013-07-03 21:40:00,77.0,47.0,-100.00,SE,128,9.0,14.0,35,0.00,,,0.57,163.000000,,2013-07-04 01:40:00,
2013-07-03 21:46:00,77.0,47.0,-100.00,SE,128,9.0,14.0,35,0.00,,,0.57,163.000000,,2013-07-04 01:46:00,
2013-07-03 22:01:00,75.0,46.0,-100.00,SE,129,10.0,14.0,36,0.00,,,0.57,65.000000,,2013-07-04 02:01:00,
2013-07-03 22:24:00,75.0,46.0,-100.00,SE,129,10.0,14.0,36,0.00,,,0.57,65.000000,,2013-07-04 02:24:00,
2013-07-03 22:49:00,75.0,46.0,-100.00,SE,129,10.0,14.0,36,0.00,,,0.57,65.000000,,2013-07-04 02:49:00,
2013-07-03 22:56:00,75.0,46.0,-100.00,SE,129,10.0,14.0,36,0.00,,,0.57,65.000000,,2013-07-04 02:56:00,
2013-07-03 23:01:00,75.0,45.0,-100.00,ESE,123,6.0,12.0,35,0.00,,,0.41,2.000000,,2013-07-04 03:01:00,
2013-07-03 23:28:00,75.0,45.0,-100.00,ESE,123,6.0,12.0,35,0.00,,,0.41,2.000000,,2013-07-04 03:28:00,
2013-07-03 23:36:00,75.0,45.0,-100.00,ESE,123,6.0,12.0,35,0.00,,,0.41,2.000000,,2013-07-04 03:36:00,
2013-07-03 23:46:00,75.0,45.0,-100.00,ESE,123,6.0,12.0,35,0.00,,,0.41,2.000000,,2013-07-04 03:46:00,
2013-07-03 23:57:00,75.0,45.0,-100.00,ESE,123,6.0,12.0,35,0.00,,,0.41,2.000000,,2013-07-04 03:57:00,